Time,TemperatureF,DewpointF,PressureIn,WindDirection,WindDirectionDegrees,WindSpeedMPH,WindSpeedGustMPH,Humidity,HourlyPrecipIn,Conditions,Clouds,dailyrainin,SoftwareType,DateUTC
2013-03-30 00:02:00,48.0,42.0,30.35,SE,145,0.0,0.0,80,0.00,,,0.00,,2013-03-30 04:02:00,
2013-03-30 00:12:00,48.0,42.0,30.35,SE,145,0.0,0.0,80,0.00,,,0.00,,2013-03-30 04:12:00,
2013-03-30 00:23:00,48.0,44.0,30.34,East,97,3.0,5.0,86,0.00,,,0.00,,2013-03-30 04:23:00,
2013-03-30 00:32:00,47.0,44.0,30.34,SE,134,1.0,3.0,88,0.00,,,0.00,,2013-03-30 04:32:00,
2013-03-30 00:43:00,47.0,44.0,30.34,SE,134,1.0,3.0,88,0.00,,,0.00,,2013-03-30 04:43:00,
2013-03-30 00:53:00,47.0,44.0,30.33,South,188,0.0,2.0,89,0.00,,,0.00,,2013-03-30 04:53:00,
2013-03-30 01:02:00,47.0,45.0,30.32,WSW,250,4.0,7.0,92,0.00,,,0.00,,2013-03-30 05:02:00,
2013-03-30 01:12:00,47.0,45.0,30.32,WSW,250,4.0,7.0,92,0.00,,,0.00,,2013-03-30 05:12:00,
2013-03-30 01:22:00,46.0,44.0,30.31,SSE,159,2.0,2.0,92,0.00,,,0.00,,2013-03-30 05:22:00,
2013-03-30 01:32:00,46.0,43.0,30.32,SSW,205,4.0,5.0,90,0.00,,,0.00,,2013-03-30 05:32:00,
2013-03-30 01:42:00,46.0,43.0,30.32,SSW,205,4.0,5.0,90,0.00,,,0.00,,2013-03-30 05:42:00,
2013-03-30 01:52:00,47.0,44.0,30.32,WSW,240,5.0,6.0,89,0.00,,,0.00,,2013-03-30 05:52:00,
2013-03-30 02:02:00,47.0,44.0,30.32,West,278,0.0,0.0,89,0.00,,,0.00,,2013-03-30 06:02:00,
2013-03-30 02:12:00,47.0,44.0,30.32,West,278,0.0,0.0,89,0.00,,,0.00,,2013-03-30 06:12:00,
2013-03-30 02:23:00,46.0,44.0,30.33,WSW,252,3.0,4.0,93,0.00,,,0.00,,2013-03-30 06:23:00,
2013-03-30 02:32:00,46.0,45.0,30.33,WSW,252,3.0,5.0,96,0.00,,,0.01,,2013-03-30 06:32:00,
2013-03-30 02:42:00,46.0,45.0,30.33,WSW,252,3.0,5.0,96,0.00,,,0.01,,2013-03-30 06:42:00,
2013-03-30 02:52:00,45.0,44.0,30.32,West,270,4.0,5.0,97,0.00,,,0.02,,2013-03-30 06:52:00,
2013-03-30 03:02:00,45.0,44.0,30.32,ENE,62,2.0,3.0,97,0.00,,,0.02,,2013-03-30 07:02:00,
2013-03-30 03:12:00,45.0,44.0,30.32,ENE,62,2.0,3.0,97,0.00,,,0.02,,2013-03-30 07:12:00,
2013-03-30 03:22:00,45.0,44.0,30.31,NNW,333,0.0,0.0,97,0.00,,,0.02,,2013-03-30 07:22:00,
2013-03-30 03:32:00,45.0,45.0,30.31,North,350,0.0,0.0,99,0.00,,,0.02,,2013-03-30 07:32:00,
2013-03-30 03:42:00,45.0,45.0,30.31,North,350,0.0,0.0,99,0.00,,,0.02,,2013-03-30 07:42:00,
2013-03-30 03:52:00,45.0,45.0,30.31,North,350,0.0,0.0,99,0.00,,,0.02,,2013-03-30 07:52:00,
2013-03-30 04:02:00,45.0,45.0,30.31,ENE,58,0.0,0.0,100,0.00,,,0.02,,2013-03-30 08:02:00,
2013-03-30 04:12:00,45.0,45.0,30.31,ENE,58,0.0,0.0,100,0.00,,,0.02,,2013-03-30 08:12:00,
2013-03-30 04:22:00,45.0,45.0,30.31,ENE,58,0.0,0.0,100,0.00,,,0.02,,2013-03-30 08:22:00,
2013-03-30 04:32:00,45.0,45.0,30.30,ENE,58,0.0,0.0,100,0.00,,,0.02,,2013-03-30 08:32:00,
2013-03-30 04:42:00,45.0,45.0,30.30,ENE,58,0.0,0.0,100,0.00,,,0.02,,2013-03-30 08:42:00,
2013-03-30 04:52:00,45.0,45.0,30.30,NNE,15,1.0,1.0,100,0.00,,,0.02,,2013-03-30 08:52:00,
2013-03-30 05:02:00,45.0,45.0,30.30,NNE,18,1.0,2.0,100,0.00,,,0.02,,2013-03-30 09:02:00,
2013-03-30 05:12:00,45.0,45.0,30.30,NNE,18,0.0,0.0,100,0.00,,,0.02,,2013-03-30 09:12:00,
2013-03-30 05:22:00,45.0,45.0,30.30,NNE,18,0.0,0.0,100,0.00,,,0.02,,2013-03-30 09:22:00,
2013-03-30 05:43:00,45.0,45.0,30.31,NNE,18,0.0,0.0,100,0.00,,,0.03,,2013-03-30 09:43:00,
2013-03-30 05:53:00,45.0,45.0,30.31,NNE,18,0.0,0.0,100,0.00,,,0.05,,2013-03-30 09:53:00,
2013-03-30 06:02:00,45.0,45.0,30.30,NNE,18,0.0,0.0,100,0.00,,,0.05,,2013-03-30 10:02:00,
2013-03-30 06:13:00,45.0,45.0,30.30,NNE,18,0.0,0.0,100,0.00,,,0.05,,2013-03-30 10:13:00,
2013-03-30 06:23:00,45.0,45.0,30.29,NE,34,1.0,2.0,100,0.00,,,0.05,,2013-03-30 10:23:00,
2013-03-30 06:33:00,45.0,45.0,30.30,NNE,20,0.0,0.0,100,0.00,,,0.05,,2013-03-30 10:33:00,
2013-03-30 06:42:00,45.0,45.0,30.30,NNE,20,0.0,0.0,100,0.00,,,0.05,,2013-03-30 10:42:00,
2013-03-30 06:52:00,45.0,45.0,30.30,NNE,20,0.0,0.0,100,0.00,,,0.05,,2013-03-30 10:52:00,
2013-03-30 07:03:00,45.0,45.0,30.30,NE,53,1.0,1.0,100,0.00,,,0.05,,2013-03-30 11:03:00,
2013-03-30 07:12:00,45.0,45.0,30.30,NE,53,1.0,1.0,100,0.00,,,0.05,,2013-03-30 11:12:00,
2013-03-30 07:22:00,45.0,45.0,30.30,NNE,23,0.0,0.0,100,0.00,,,0.06,,2013-03-30 11:22:00,
2013-03-30 07:33:00,45.0,45.0,30.30,NNE,15,0.0,0.0,100,0.00,,,0.06,,2013-03-30 11:33:00,
2013-03-30 07:42:00,45.0,45.0,30.30,NNE,15,0.0,0.0,100,0.00,,,0.06,,2013-03-30 11:42:00,
2013-03-30 07:53:00,45.0,45.0,30.30,NNE,15,0.0,0.0,100,0.00,,,0.06,,2013-03-30 11:53:00,
2013-03-30 08:02:00,45.0,45.0,30.31,NNE,15,0.0,0.0,100,0.00,,,0.06,,2013-03-30 12:02:00,
2013-03-30 08:12:00,45.0,45.0,30.31,NNE,15,0.0,0.0,100,0.00,,,0.06,,2013-03-30 12:12:00,
2013-03-30 08:22:00,45.0,45.0,30.32,North,3,0.0,0.0,100,0.00,,,0.06,,2013-03-30 12:22:00,
2013-03-30 08:32:00,45.0,45.0,30.32,North,3,0.0,0.0,100,0.00,,,0.06,,2013-03-30 12:32:00,
2013-03-30 08:42:00,45.0,45.0,30.32,North,3,0.0,0.0,100,0.00,,,0.06,,2013-03-30 12:42:00,
2013-03-30 08:53:00,45.0,45.0,30.32,North,3,0.0,0.0,100,0.00,,,0.06,,2013-03-30 12:53:00,
2013-03-30 09:02:00,45.0,45.0,30.32,North,3,0.0,0.0,100,0.00,,,0.06,,2013-03-30 13:02:00,
2013-03-30 09:12:00,45.0,45.0,30.32,North,3,0.0,0.0,100,0.00,,,0.06,,2013-03-30 13:12:00,
2013-03-30 09:22:00,46.0,46.0,30.32,North,3,0.0,0.0,100,0.00,,,0.06,,2013-03-30 13:22:00,
2013-03-30 09:32:00,46.0,46.0,30.33,ENE,58,0.0,0.0,100,0.00,,,0.06,,2013-03-30 13:32:00,
2013-03-30 09:42:00,46.0,46.0,30.33,ENE,58,0.0,0.0,100,0.00,,,0.06,,2013-03-30 13:42:00,
2013-03-30 09:52:00,46.0,46.0,30.32,ENE,58,0.0,0.0,100,0.00,,,0.06,,2013-03-30 13:52:00,
2013-03-30 10:03:00,47.0,47.0,30.33,ENE,58,0.0,0.0,100,0.00,,,0.06,,2013-03-30 14:03:00,
2013-03-30 10:12:00,47.0,47.0,30.33,ENE,58,0.0,0.0,100,0.00,,,0.06,,2013-03-30 14:12:00,
2013-03-30 10:23:00,49.0,49.0,30.32,WNW,284,0.0,0.0,100,0.00,,,0.06,,2013-03-30 14:23:00,
2013-03-30 10:32:00,50.0,49.0,30.32,WNW,284,0.0,0.0,98,0.00,,,0.06,,2013-03-30 14:32:00,
2013-03-30 10:42:00,50.0,49.0,30.32,WNW,284,0.0,0.0,98,0.00,,,0.06,,2013-03-30 14:42:00,
2013-03-30 10:52:00,51.0,50.0,30.33,SW,214,0.0,0.0,96,0.00,,,0.06,,2013-03-30 14:52:00,
2013-03-30 11:03:00,53.0,50.0,30.32,North,7,0.0,0.0,91,0.00,,,0.06,,2013-03-30 15:03:00,
2013-03-30 11:12:00,53.0,50.0,30.32,North,7,0.0,0.0,91,0.00,,,0.06,,2013-03-30 15:12:00,
2013-03-30 11:22:00,55.0,50.0,30.31,South,186,0.0,2.0,83,0.00,,,0.06,,2013-03-30 15:22:00,
2013-03-30 11:33:00,57.0,50.0,30.31,SE,139,3.0,6.0,77,0.00,,,0.06,,2013-03-30 15:33:00,
2013-03-30 11:43:00,57.0,50.0,30.31,SE,139,3.0,6.0,77,0.00,,,0.06,,2013-03-30 15:43:00,
2013-03-30 11:52:00,57.0,49.0,30.31,West,264,3.0,5.0,74,0.00,,,0.06,,2013-03-30 15:52:00,
2013-03-30 12:03:00,57.0,48.0,30.30,East,89,2.0,4.0,73,0.00,,,0.06,,2013-03-30 16:03:00,
2013-03-30 12:13:00,58.0,48.0,30.30,ESE,121,4.0,7.0,69,0.00,,,0.06,,2013-03-30 16:13:00,
2013-03-30 12:23:00,58.0,48.0,30.30,ESE,121,4.0,7.0,69,0.00,,,0.06,,2013-03-30 16:23:00,
2013-03-30 12:33:00,59.0,47.0,30.29,SSE,162,5.0,8.0,65,0.00,,,0.06,,2013-03-30 16:33:00,
2013-03-30 12:43:00,59.0,47.0,30.29,SSE,162,5.0,8.0,65,0.00,,,0.06,,2013-03-30 16:43:00,
2013-03-30 12:53:00,59.0,47.0,30.29,SE,129,4.0,7.0,65,0.00,,,0.06,,2013-03-30 16:53:00,
2013-03-30 13:02:00,60.0,49.0,30.29,East,89,2.0,3.0,66,0.00,,,0.06,,2013-03-30 17:02:00,
2013-03-30 13:13:00,60.0,49.0,30.29,East,89,2.0,3.0,66,0.00,,,0.06,,2013-03-30 17:13:00,
2013-03-30 13:23:00,60.0,48.0,30.28,ESE,120,5.0,6.0,64,0.00,,,0.06,,2013-03-30 17:23:00,
2013-03-30 13:32:00,62.0,47.0,30.27,West,271,6.0,10.0,58,0.00,,,0.06,,2013-03-30 17:32:00,
2013-03-30 13:42:00,62.0,47.0,30.27,West,271,6.0,10.0,58,0.00,,,0.06,,2013-03-30 17:42:00,
2013-03-30 13:52:00,63.0,47.0,30.27,West,263,4.0,7.0,56,0.00,,,0.06,,2013-03-30 17:52:00,
2013-03-30 14:03:00,63.0,47.0,30.26,SSE,162,5.0,7.0,56,0.00,,,0.06,,2013-03-30 18:03:00,
2013-03-30 14:12:00,63.0,47.0,30.26,West,278,2.0,3.0,56,0.00,,,0.06,,2013-03-30 18:12:00,
2013-03-30 14:22:00,63.0,47.0,30.26,West,278,2.0,3.0,56,0.00,,,0.06,,2013-03-30 18:22:00,
2013-03-30 14:32:00,63.0,47.0,30.25,SSW,194,5.0,7.0,55,0.00,,,0.06,,2013-03-30 18:32:00,
2013-03-30 14:42:00,63.0,47.0,30.25,SSW,194,5.0,7.0,55,0.00,,,0.06,,2013-03-30 18:42:00,
2013-03-30 14:53:00,63.0,46.0,30.25,West,276,5.0,6.0,53,0.00,,,0.06,,2013-03-30 18:53:00,
2013-03-30 15:03:00,63.0,47.0,30.24,SSE,160,0.0,1.0,55,0.00,,,0.06,,2013-03-30 19:03:00,
2013-03-30 15:13:00,63.0,47.0,30.24,SSE,160,0.0,1.0,55,0.00,,,0.06,,2013-03-30 19:13:00,
2013-03-30 15:22:00,65.0,46.0,30.23,WNW,287,7.0,10.0,50,0.00,,,0.06,,2013-03-30 19:22:00,
2013-03-30 15:32:00,64.0,47.0,30.23,SSE,158,2.0,5.0,53,0.00,,,0.06,,2013-03-30 19:32:00,
2013-03-30 15:42:00,64.0,47.0,30.23,SSE,158,2.0,5.0,53,0.00,,,0.06,,2013-03-30 19:42:00,
2013-03-30 15:52:00,65.0,47.0,30.22,SSW,193,0.0,1.0,52,0.00,,,0.06,,2013-03-30 19:52:00,
2013-03-30 16:02:00,65.0,46.0,30.22,SE,131,1.0,3.0,51,0.00,,,0.06,,2013-03-30 20:02:00,
2013-03-30 16:12:00,65.0,46.0,30.22,SE,131,1.0,3.0,51,0.00,,,0.06,,2013-03-30 20:12:00,
2013-03-30 16:22:00,64.0,45.0,30.21,South,169,6.0,8.0,50,0.00,,,0.06,,2013-03-30 20:22:00,
2013-03-30 16:33:00,65.0,45.0,30.20,South,179,4.0,5.0,49,0.00,,,0.06,,2013-03-30 20:33:00,
2013-03-30 16:42:00,65.0,45.0,30.20,South,179,4.0,5.0,49,0.00,,,0.06,,2013-03-30 20:42:00,
2013-03-30 16:53:00,66.0,45.0,30.20,West,269,1.0,3.0,47,0.00,,,0.06,,2013-03-30 20:53:00,
2013-03-30 17:02:00,65.0,45.0,30.19,South,188,2.0,5.0,48,0.00,,,0.06,,2013-03-30 21:02:00,
2013-03-30 17:12:00,65.0,45.0,30.19,South,188,2.0,5.0,48,0.00,,,0.06,,2013-03-30 21:12:00,
2013-03-30 17:22:00,66.0,45.0,30.19,WSW,250,3.0,4.0,47,0.00,,,0.06,,2013-03-30 21:22:00,
2013-03-30 17:34:00,66.0,45.0,30.19,South,187,5.0,7.0,46,0.00,,,0.06,,2013-03-30 21:34:00,
2013-03-30 17:43:00,66.0,45.0,30.19,South,187,5.0,7.0,46,0.00,,,0.06,,2013-03-30 21:43:00,
2013-03-30 17:52:00,66.0,45.0,30.19,NW,314,5.0,9.0,46,0.00,,,0.06,,2013-03-30 21:52:00,
2013-03-30 18:03:00,65.0,43.0,30.18,West,266,4.0,5.0,44,0.00,,,0.06,,2013-03-30 22:03:00,
2013-03-30 18:13:00,65.0,43.0,30.18,West,266,4.0,5.0,44,0.00,,,0.06,,2013-03-30 22:13:00,
2013-03-30 18:23:00,65.0,44.0,30.19,SW,235,2.0,5.0,47,0.00,,,0.06,,2013-03-30 22:23:00,
2013-03-30 18:33:00,64.0,43.0,30.18,WSW,245,2.0,3.0,47,0.00,,,0.06,,2013-03-30 22:33:00,
2013-03-30 18:43:00,64.0,43.0,30.18,WSW,245,2.0,3.0,47,0.00,,,0.06,,2013-03-30 22:43:00,
2013-03-30 18:53:00,65.0,44.0,30.18,WSW,239,1.0,3.0,47,0.00,,,0.06,,2013-03-30 22:53:00,
2013-03-30 19:02:00,64.0,43.0,30.18,West,262,3.0,5.0,47,0.00,,,0.06,,2013-03-30 23:02:00,
2013-03-30 19:12:00,64.0,43.0,30.18,West,262,3.0,5.0,47,0.00,,,0.06,,2013-03-30 23:12:00,
2013-03-30 19:22:00,64.0,43.0,30.18,WSW,239,3.0,6.0,47,0.00,,,0.06,,2013-03-30 23:22:00,
2013-03-30 19:33:00,64.0,44.0,30.18,NW,319,0.0,0.0,49,0.00,,,0.06,,2013-03-30 23:33:00,
2013-03-30 19:42:00,64.0,44.0,30.18,NW,319,0.0,0.0,49,0.00,,,0.06,,2013-03-30 23:42:00,
2013-03-30 19:52:00,64.0,44.0,30.18,SW,226,0.0,0.0,49,0.00,,,0.06,,2013-03-30 23:52:00,
2013-03-30 20:02:00,63.0,45.0,30.18,WSW,257,1.0,3.0,51,0.00,,,0.06,,2013-03-31 00:02:00,
2013-03-30 20:12:00,63.0,45.0,30.18,WSW,257,1.0,3.0,51,0.00,,,0.06,,2013-03-31 00:12:00,
2013-03-30 20:22:00,62.0,45.0,30.18,WSW,257,0.0,0.0,54,0.00,,,0.06,,2013-03-31 00:22:00,
2013-03-30 20:32:00,61.0,46.0,30.18,WSW,257,0.0,0.0,57,0.00,,,0.06,,2013-03-31 00:32:00,
2013-03-30 20:42:00,61.0,46.0,30.18,WSW,257,0.0,0.0,57,0.00,,,0.06,,2013-03-31 00:42:00,
2013-03-30 20:52:00,59.0,45.0,30.18,WSW,257,0.0,0.0,59,0.00,,,0.06,,2013-03-31 00:52:00,
2013-03-30 21:02:00,58.0,45.0,30.19,WSW,257,0.0,0.0,62,0.00,,,0.06,,2013-03-31 01:02:00,
2013-03-30 21:12:00,58.0,45.0,30.19,WSW,257,0.0,0.0,62,0.00,,,0.06,,2013-03-31 01:12:00,
2013-03-30 21:22:00,57.0,45.0,30.18,WSW,257,0.0,0.0,63,0.00,,,0.06,,2013-03-31 01:22:00,
2013-03-30 21:32:00,56.0,45.0,30.18,WSW,257,0.0,0.0,67,0.00,,,0.06,,2013-03-31 01:32:00,
2013-03-30 21:42:00,56.0,45.0,30.18,WSW,257,0.0,0.0,67,0.00,,,0.06,,2013-03-31 01:42:00,
2013-03-30 21:53:00,55.0,45.0,30.19,WSW,257,0.0,0.0,69,0.00,,,0.06,,2013-03-31 01:53:00,
2013-03-30 22:02:00,55.0,45.0,30.19,WSW,257,0.0,0.0,70,0.00,,,0.06,,2013-03-31 02:02:00,
2013-03-30 22:13:00,55.0,45.0,30.19,WSW,257,0.0,0.0,70,0.00,,,0.06,,2013-03-31 02:13:00,
2013-03-30 22:22:00,54.0,45.0,30.19,WSW,257,0.0,0.0,72,0.00,,,0.06,,2013-03-31 02:22:00,
2013-03-30 22:32:00,53.0,46.0,30.19,WSW,257,0.0,0.0,76,0.00,,,0.06,,2013-03-31 02:32:00,
2013-03-30 22:43:00,53.0,46.0,30.19,WSW,257,0.0,0.0,76,0.00,,,0.06,,2013-03-31 02:43:00,
2013-03-30 22:52:00,53.0,45.0,30.19,WSW,257,0.0,0.0,75,0.00,,,0.06,,2013-03-31 02:52:00,
2013-03-30 23:02:00,52.0,45.0,30.19,WSW,257,0.0,0.0,76,0.00,,,0.06,,2013-03-31 03:02:00,
2013-03-30 23:13:00,52.0,45.0,30.19,WSW,257,0.0,0.0,76,0.00,,,0.06,,2013-03-31 03:13:00,
2013-03-30 23:22:00,52.0,45.0,30.18,WSW,257,0.0,0.0,76,0.00,,,0.06,,2013-03-31 03:22:00,
2013-03-30 23:33:00,52.0,45.0,30.18,WSW,257,0.0,0.0,76,0.00,,,0.06,,2013-03-31 03:33:00,
2013-03-30 23:43:00,52.0,45.0,30.18,WSW,257,0.0,0.0,76,0.00,,,0.06,,2013-03-31 03:43:00,
2013-03-30 23:53:00,52.0,45.0,30.18,WSW,257,0.0,0.0,77,0.00,,,0.06,,2013-03-31 03:53:00,